富士山静岡空港METAR/TAF(約33km東):

RJNS 150100Z 33005KT 290V020 9999 FEW003 SCT015 BKN050 27/24 Q1016

TAF AMD RJNS 150006Z 1500/1606 36004KT 9999 FEW008 BKN020 BECMG 1500/1502 18008KT BECMG 1521/1600 22014KT


風向風力(Windy.com):
スマホでの閲覧には、アプリ版Windy(Android/iOS)が適切です。